Time;durP1;ratioP1;P1;durP2;ratioP2;P2;SDS_P1;SDS_P2;PMS_P1;PMS_P2;Temp;Humidity;BMP_temperature;BMP_pressure;BME280_temperature;BME280_humidity;BME280_pressure;Samples;Min_cycle;Max_cycle;Signal;HPM_P1;HPM_P2
2024/01/02 00:01:18;;;;;;;6.43;1.67;;;28.40;99.90;;;;;;5091179;28;20198;-81
2024/01/02 00:03:49;;;;;;;6.45;1.48;;;28.50;99.90;;;;;;5106905;28;20277;-81
2024/01/02 00:06:20;;;;;;;8.52;1.80;;;28.50;99.90;;;;;;5112135;28;20193;-81
2024/01/02 00:08:52;;;;;;;7.13;1.55;;;28.50;99.90;;;;;;5090225;28;20214;-81
2024/01/02 00:11:23;;;;;;;6.60;1.88;;;28.50;99.90;;;;;;5092356;28;20198;-82
2024/01/02 00:13:54;;;;;;;6.03;1.30;;;28.50;99.90;;;;;;5122017;27;20198;-81
2024/01/02 00:16:25;;;;;;;5.28;1.40;;;28.50;99.90;;;;;;5116507;27;20197;-81
2024/01/02 00:18:56;;;;;;;9.52;1.95;;;28.50;99.90;;;;;;5105625;28;20248;-81
2024/01/02 00:21:26;;;;;;;4.95;1.58;;;28.50;99.90;;;;;;5112722;28;20203;-80
2024/01/02 00:23:59;;;;;;;8.35;1.60;;;28.50;99.90;;;;;;5112648;28;20214;-81
2024/01/02 00:26:30;;;;;;;5.63;1.65;;;28.40;99.90;;;;;;5111345;28;20194;-81
2024/01/02 00:29:01;;;;;;;11.55;1.95;;;28.40;99.90;;;;;;5114860;28;20205;-81
2024/01/02 00:31:31;;;;;;;7.50;2.00;;;28.20;99.90;;;;;;5114690;28;20195;-81
2024/01/02 00:34:02;;;;;;;6.70;1.50;;;28.20;99.90;;;;;;5114939;28;20194;-81
2024/01/02 00:36:33;;;;;;;11.70;1.85;;;28.10;99.90;;;;;;5113506;27;20221;-80
2024/01/02 00:39:06;;;;;;;9.60;1.67;;;28.10;99.90;;;;;;5111603;28;20225;-81
2024/01/02 00:41:36;;;;;;;7.07;1.67;;;28.20;99.90;;;;;;5101823;28;20691;-81
2024/01/02 00:44:07;;;;;;;7.70;1.40;;;28.30;99.90;;;;;;5098078;28;20199;-81
2024/01/02 00:46:38;;;;;;;10.35;1.52;;;28.20;99.90;;;;;;5107205;27;20325;-81
2024/01/02 00:49:09;;;;;;;4.28;1.30;;;28.10;99.90;;;;;;5112908;28;20191;-81
2024/01/02 00:51:39;;;;;;;8.15;1.55;;;28.00;99.90;;;;;;5114616;28;20186;-82
2024/01/02 00:54:12;;;;;;;8.85;1.70;;;28.00;99.90;;;;;;5116760;27;20264;-82
2024/01/02 00:56:43;;;;;;;7.90;1.95;;;27.90;99.90;;;;;;5109421;28;20240;-82
2024/01/02 00:59:14;;;;;;;7.53;1.50;;;27.90;99.90;;;;;;5105038;28;20230;-80
2024/01/02 01:01:45;;;;;;;5.05;1.40;;;28.00;99.90;;;;;;5113210;28;20210;-80
2024/01/02 01:04:16;;;;;;;6.30;1.25;;;28.00;99.90;;;;;;5114070;28;20313;-80
2024/01/02 01:06:46;;;;;;;5.43;1.60;;;28.00;99.90;;;;;;5113669;28;20198;-83
2024/01/02 01:09:19;;;;;;;7.97;1.80;;;28.00;99.90;;;;;;5113150;27;20193;-82
2024/01/02 01:11:50;;;;;;;8.20;1.80;;;28.00;99.90;;;;;;5113028;27;20198;-81
2024/01/02 01:14:21;;;;;;;7.53;1.65;;;28.20;99.90;;;;;;5119539;27;20338;-82
2024/01/02 01:16:51;;;;;;;6.80;1.70;;;28.20;99.90;;;;;;5112235;28;20206;-81
2024/01/02 01:19:23;;;;;;;5.63;1.60;;;28.10;99.90;;;;;;5112215;28;20581;-81
2024/01/02 01:25:02;;;;;;;5.57;1.40;;;28.20;99.90;;;;;;5100429;28;20683;-81
2024/01/02 01:27:33;;;;;;;6.70;1.63;;;28.20;99.90;;;;;;5110971;28;20195;-81
2024/01/02 01:30:04;;;;;;;4.38;1.20;;;28.30;99.90;;;;;;5110239;28;20580;-81
2024/01/02 01:32:34;;;;;;;8.05;1.55;;;28.40;99.90;;;;;;5115653;27;20210;-81
2024/01/02 01:35:05;;;;;;;9.52;1.83;;;28.40;99.90;;;;;;5125266;27;20567;-81
2024/01/02 01:37:36;;;;;;;5.88;1.38;;;28.40;99.90;;;;;;5113134;28;20226;-81
2024/01/02 01:40:10;;;;;;;5.82;1.50;;;28.50;99.90;;;;;;5110576;28;20199;-81
2024/01/02 01:42:41;;;;;;;5.78;1.48;;;28.50;99.90;;;;;;5107283;28;20221;-81
2024/01/02 01:45:12;;;;;;;5.10;1.30;;;28.50;99.90;;;;;;5110315;28;20224;-81
2024/01/02 01:47:43;;;;;;;5.60;1.40;;;28.60;99.90;;;;;;5106467;28;20209;-81
2024/01/02 01:50:14;;;;;;;11.07;1.40;;;28.50;99.90;;;;;;5111789;28;20228;-81
2024/01/02 01:52:46;;;;;;;7.00;1.17;;;28.40;99.90;;;;;;5092560;28;20684;-81
2024/01/02 01:55:18;;;;;;;6.05;1.48;;;28.50;99.90;;;;;;5100744;28;20198;-82
2024/01/02 01:57:49;;;;;;;7.25;1.50;;;28.50;99.90;;;;;;5110907;27;20232;-81
2024/01/02 02:00:22;;;;;;;7.13;1.30;;;28.40;99.90;;;;;;5097337;28;20337;-80
2024/01/02 02:02:54;;;;;;;7.57;1.60;;;28.50;99.90;;;;;;5107854;28;20580;-80
2024/01/02 02:05:27;;;;;;;5.43;1.30;;;28.50;99.90;;;;;;5099988;28;20219;-80
2024/01/02 02:07:59;;;;;;;5.32;1.30;;;28.60;99.90;;;;;;5106693;28;20606;-80
2024/01/02 02:10:32;;;;;;;7.63;1.50;;;28.60;99.90;;;;;;5108430;28;20210;-80
2024/01/02 02:13:02;;;;;;;6.57;1.60;;;28.70;99.90;;;;;;5097997;28;20653;-80
2024/01/02 02:15:38;;;;;;;6.47;1.50;;;28.80;99.90;;;;;;5108011;27;20589;-79
2024/01/02 02:18:09;;;;;;;6.80;1.40;;;28.70;99.90;;;;;;5111177;28;20237;-80
2024/01/02 02:20:40;;;;;;;5.18;1.35;;;28.70;99.90;;;;;;5111917;28;20195;-80
2024/01/02 02:23:12;;;;;;;6.05;1.55;;;28.80;99.90;;;;;;5107682;28;20584;-80
2024/01/02 02:25:43;;;;;;;7.00;1.17;;;28.80;99.90;;;;;;5103033;28;20210;-80
2024/01/02 02:28:14;;;;;;;6.05;1.50;;;28.80;99.90;;;;;;5122235;28;20215;-80
2024/01/02 02:30:45;;;;;;;4.93;1.33;;;28.70;99.90;;;;;;5114479;28;20221;-80
2024/01/02 02:33:15;;;;;;;5.00;1.48;;;28.70;99.90;;;;;;5108444;28;20288;-80
2024/01/02 02:35:46;;;;;;;5.22;1.20;;;28.80;99.90;;;;;;5095829;28;20218;-81
2024/01/02 02:38:19;;;;;;;6.10;1.42;;;28.80;99.90;;;;;;5109148;28;20237;-80
2024/01/02 02:40:49;;;;;;;6.53;1.58;;;28.80;99.90;;;;;;5108325;28;20198;-80
2024/01/02 02:43:20;;;;;;;8.50;1.67;;;28.80;99.90;;;;;;5106599;28;20246;-81
2024/01/02 02:45:51;;;;;;;6.68;1.40;;;28.80;99.90;;;;;;5098096;28;20198;-80
2024/01/02 02:48:22;;;;;;;6.80;1.50;;;28.80;99.90;;;;;;5115945;27;20606;-81
2024/01/02 02:50:52;;;;;;;6.53;1.38;;;28.80;99.90;;;;;;5132178;27;20588;-81
2024/01/02 02:53:25;;;;;;;10.23;1.83;;;28.90;99.90;;;;;;5132077;27;20216;-80
2024/01/02 02:55:56;;;;;;;8.82;1.73;;;28.90;99.90;;;;;;5116671;27;20210;-81
2024/01/02 02:58:27;;;;;;;6.97;1.60;;;28.90;99.90;;;;;;5102710;27;20230;-81
2024/01/02 03:00:58;;;;;;;4.70;1.20;;;28.90;99.90;;;;;;5104862;28;20184;-81
2024/01/02 03:03:29;;;;;;;6.35;1.27;;;28.90;99.90;;;;;;5108712;28;20214;-80
2024/01/02 03:06:03;;;;;;;6.03;1.48;;;29.00;99.90;;;;;;5113221;28;20281;-80
2024/01/02 03:08:35;;;;;;;7.72;1.67;;;28.90;99.90;;;;;;5112068;28;20313;-80
2024/01/02 03:11:06;;;;;;;6.32;1.30;;;28.90;99.90;;;;;;5111169;28;20212;-80
2024/01/02 03:13:37;;;;;;;5.90;1.35;;;28.80;99.90;;;;;;5111190;28;20198;-80
2024/01/02 03:16:10;;;;;;;6.22;1.23;;;28.80;99.90;;;;;;5107741;28;20211;-82
2024/01/02 03:18:41;;;;;;;8.02;1.50;;;28.80;99.90;;;;;;5097640;28;20235;-82
2024/01/02 03:21:14;;;;;;;6.78;1.27;;;28.70;99.90;;;;;;5111099;28;20216;-81
2024/01/02 03:23:46;;;;;;;7.40;1.30;;;28.80;99.90;;;;;;5108456;28;20214;-82
2024/01/02 03:26:17;;;;;;;4.60;1.20;;;28.80;99.90;;;;;;5112461;28;20290;-82
2024/01/02 03:28:48;;;;;;;4.28;1.30;;;28.90;99.90;;;;;;5105779;28;20196;-81
2024/01/02 03:31:19;;;;;;;6.75;1.55;;;29.10;99.90;;;;;;5110363;28;20660;-82
2024/01/02 03:33:50;;;;;;;10.63;1.60;;;29.20;99.90;;;;;;5108594;28;20198;-81
2024/01/02 03:36:21;;;;;;;10.35;1.80;;;29.20;99.90;;;;;;5110745;28;20198;-81
2024/01/02 03:38:54;;;;;;;5.75;1.50;;;29.20;99.90;;;;;;5111057;28;20234;-81
2024/01/02 03:41:25;;;;;;;8.52;1.45;;;29.00;99.90;;;;;;5097669;28;20204;-82
2024/01/02 03:43:56;;;;;;;10.48;1.70;;;29.00;99.90;;;;;;5108937;28;20212;-82
2024/01/02 03:46:26;;;;;;;7.63;1.80;;;29.10;99.90;;;;;;5097607;28;20214;-82
2024/01/02 03:48:57;;;;;;;5.68;1.40;;;28.90;99.90;;;;;;5105350;28;20194;-82
2024/01/02 03:51:28;;;;;;;8.05;1.77;;;29.00;99.90;;;;;;5102001;28;20191;-81
2024/01/02 03:54:01;;;;;;;4.50;1.10;;;29.00;99.90;;;;;;5110181;28;20569;-81
2024/01/02 03:56:34;;;;;;;8.73;1.40;;;29.00;99.90;;;;;;5112800;28;20217;-81
2024/01/02 03:59:05;;;;;;;5.35;1.20;;;29.10;99.90;;;;;;5116430;28;20222;-81
2024/01/02 04:01:43;;;;;;;6.88;1.38;;;29.00;99.90;;;;;;5098589;28;20205;-81
2024/01/02 04:04:14;;;;;;;6.20;1.40;;;29.00;99.90;;;;;;5105104;28;20235;-81
2024/01/02 04:06:46;;;;;;;7.68;1.70;;;29.00;99.90;;;;;;5119701;28;20223;-81
2024/01/02 04:09:18;;;;;;;6.65;1.30;;;28.90;99.90;;;;;;5111032;28;20235;-82
2024/01/02 04:11:50;;;;;;;7.30;1.38;;;28.90;99.90;;;;;;5110813;28;20660;-82
2024/01/02 04:14:20;;;;;;;4.57;1.17;;;29.00;99.90;;;;;;5130457;28;20202;-78
2024/01/02 04:16:51;;;;;;;6.97;1.50;;;29.00;99.90;;;;;;5132111;28;20198;-81
2024/01/02 04:19:22;;;;;;;4.20;1.30;;;29.00;99.90;;;;;;5114301;28;20238;-81
2024/01/02 04:21:53;;;;;;;5.10;1.10;;;28.90;99.90;;;;;;5107876;28;20194;-81
2024/01/02 04:24:25;;;;;;;5.68;1.30;;;29.10;99.90;;;;;;5098114;28;20250;-82
2024/01/02 04:26:57;;;;;;;6.10;1.50;;;29.20;99.90;;;;;;5118242;28;20228;-80
2024/01/02 04:29:27;;;;;;;5.90;1.20;;;29.10;99.90;;;;;;5118393;28;20195;-82
2024/01/02 04:31:59;;;;;;;10.85;1.63;;;29.20;99.90;;;;;;5114773;28;20234;-82
2024/01/02 04:34:29;;;;;;;6.65;1.30;;;29.20;99.90;;;;;;5100547;28;20217;-82
2024/01/02 04:37:00;;;;;;;6.00;1.40;;;29.00;99.90;;;;;;5106835;28;20228;-83
2024/01/02 04:39:33;;;;;;;6.38;1.60;;;29.10;99.90;;;;;;5105043;28;20230;-82
2024/01/02 04:42:05;;;;;;;5.78;1.50;;;29.10;99.90;;;;;;5097377;28;20603;-83
2024/01/02 04:44:35;;;;;;;5.70;1.38;;;29.00;99.90;;;;;;5104855;28;20206;-82
2024/01/02 04:47:06;;;;;;;6.88;1.20;;;29.00;99.90;;;;;;5110573;28;20236;-82
2024/01/02 04:49:37;;;;;;;4.80;1.05;;;28.90;99.90;;;;;;5109019;28;20613;-82
2024/01/02 04:52:09;;;;;;;3.67;1.10;;;28.90;99.90;;;;;;5118834;28;20202;-83
2024/01/02 04:54:41;;;;;;;6.13;1.10;;;29.10;99.90;;;;;;5101195;28;20191;-82
2024/01/02 04:57:12;;;;;;;6.90;1.52;;;29.20;99.90;;;;;;5109094;28;20205;-83
2024/01/02 04:59:43;;;;;;;6.53;1.55;;;29.20;99.90;;;;;;5110341;28;20227;-82
2024/01/02 05:02:14;;;;;;;3.80;1.00;;;29.20;99.90;;;;;;5099860;28;20305;-82
2024/01/02 05:04:44;;;;;;;6.15;1.50;;;29.40;99.90;;;;;;5114319;27;20199;-83
2024/01/02 05:07:15;;;;;;;3.92;1.02;;;29.40;99.90;;;;;;5113895;28;20191;-82
2024/01/02 05:09:48;;;;;;;4.75;1.25;;;29.30;99.90;;;;;;5113669;28;20202;-82
2024/01/02 05:12:18;;;;;;;5.35;1.23;;;29.40;99.90;;;;;;5113624;28;20203;-83
2024/01/02 05:14:49;;;;;;;6.50;1.38;;;29.50;99.90;;;;;;5111904;28;20197;-83
2024/01/02 05:17:20;;;;;;;5.60;1.15;;;29.40;99.90;;;;;;5102636;28;20223;-83
2024/01/02 05:19:51;;;;;;;6.40;1.20;;;29.30;99.90;;;;;;5102557;28;20235;-82
2024/01/02 05:22:22;;;;;;;4.47;1.10;;;29.30;99.90;;;;;;5113108;27;20200;-82
2024/01/02 05:24:55;;;;;;;4.82;1.20;;;29.50;99.90;;;;;;5111956;28;20618;-81
2024/01/02 05:27:25;;;;;;;8.20;1.30;;;29.60;99.90;;;;;;5114620;28;20693;-82
2024/01/02 05:29:56;;;;;;;2.88;1.08;;;29.50;99.90;;;;;;5108330;28;20211;-83
2024/01/02 05:32:27;;;;;;;6.53;1.30;;;29.40;99.90;;;;;;5098762;27;20686;-83
2024/01/02 05:34:58;;;;;;;8.65;1.52;;;29.60;99.90;;;;;;5110901;27;20219;-85
2024/01/02 05:37:29;;;;;;;4.95;1.58;;;29.60;99.90;;;;;;5117812;28;20278;-84
2024/01/02 05:40:02;;;;;;;9.68;1.40;;;29.50;99.90;;;;;;5128450;27;20285;-83
2024/01/02 05:42:33;;;;;;;5.95;1.50;;;29.60;99.90;;;;;;5120577;27;20210;-84
2024/01/02 05:45:04;;;;;;;6.57;1.23;;;29.60;99.90;;;;;;5101411;28;20222;-85
2024/01/02 05:47:35;;;;;;;10.73;1.52;;;29.70;99.90;;;;;;5105952;28;20285;-85
2024/01/02 05:50:06;;;;;;;5.35;1.20;;;29.90;99.90;;;;;;5131165;27;20225;-84
2024/01/02 05:52:36;;;;;;;5.45;1.30;;;30.10;99.90;;;;;;5111884;27;20586;-82
2024/01/02 05:55:09;;;;;;;6.18;1.30;;;30.00;99.90;;;;;;5117435;27;20214;-84
2024/01/02 05:57:40;;;;;;;10.52;1.80;;;30.20;99.90;;;;;;5110242;28;20802;-82
2024/01/02 06:00:11;;;;;;;8.43;1.42;;;30.10;99.90;;;;;;5109081;27;20222;-82
2024/01/02 06:02:42;;;;;;;5.47;1.23;;;30.10;99.90;;;;;;5102720;27;20190;-81
2024/01/02 06:05:13;;;;;;;7.38;1.55;;;30.10;99.90;;;;;;5124315;27;20295;-81
2024/01/02 06:07:44;;;;;;;8.95;1.60;;;30.10;99.90;;;;;;5118974;27;20195;-81
2024/01/02 06:10:17;;;;;;;9.32;1.67;;;30.10;99.90;;;;;;5112207;27;20226;-81
2024/01/02 06:12:48;;;;;;;6.82;1.35;;;30.00;99.90;;;;;;5119594;27;20560;-81
2024/01/02 06:15:19;;;;;;;8.63;1.83;;;30.00;99.90;;;;;;5113994;27;20710;-82
2024/01/02 06:17:49;;;;;;;7.60;1.60;;;29.90;99.90;;;;;;5132291;27;20190;-82
2024/01/02 06:20:20;;;;;;;9.07;1.70;;;30.00;99.90;;;;;;5117466;27;20223;-81
2024/01/02 06:22:51;;;;;;;6.90;1.55;;;29.90;99.90;;;;;;5114237;27;20236;-81
2024/01/02 06:25:24;;;;;;;7.70;1.50;;;29.70;99.90;;;;;;5112904;27;20219;-82
2024/01/02 06:27:55;;;;;;;6.20;1.30;;;29.90;99.90;;;;;;5125371;27;20202;-82
2024/01/02 06:30:25;;;;;;;5.22;1.30;;;30.00;99.90;;;;;;5111119;27;20221;-82
2024/01/02 06:32:56;;;;;;;7.40;1.52;;;30.20;99.90;;;;;;5117780;27;20653;-82
2024/01/02 06:35:27;;;;;;;6.13;1.33;;;30.30;99.90;;;;;;5134983;27;20222;-80
2024/01/02 06:37:58;;;;;;;6.82;1.58;;;30.60;99.90;;;;;;5115456;27;20222;-83
2024/01/02 06:40:32;;;;;;;7.75;1.60;;;30.70;99.90;;;;;;5113183;27;20217;-83
2024/01/02 06:43:02;;;;;;;6.57;1.42;;;30.60;99.90;;;;;;5112453;27;20221;-84
2024/01/02 06:45:33;;;;;;;7.50;1.40;;;30.20;99.90;;;;;;5111163;28;20214;-84
2024/01/02 06:48:04;;;;;;;9.00;1.52;;;30.10;99.90;;;;;;5120670;27;20220;-85
2024/01/02 06:50:35;;;;;;;7.68;1.60;;;30.30;99.90;;;;;;5128607;27;20215;-84
2024/01/02 06:53:06;;;;;;;7.47;1.55;;;30.30;99.90;;;;;;5116806;27;20222;-84
2024/01/02 06:55:39;;;;;;;6.10;1.48;;;30.40;99.90;;;;;;5128946;27;20277;-84
2024/01/02 06:58:10;;;;;;;6.63;1.42;;;30.50;99.90;;;;;;5108797;28;20195;-84
2024/01/02 07:00:41;;;;;;;6.82;1.40;;;30.30;99.90;;;;;;5104039;27;20264;-85
2024/01/02 07:03:12;;;;;;;8.40;1.50;;;29.70;99.90;;;;;;5110644;27;20210;-85
2024/01/02 07:05:42;;;;;;;6.95;1.20;;;29.30;99.90;;;;;;5120860;27;20190;-83
2024/01/02 07:08:16;;;;;;;7.93;1.60;;;28.90;99.90;;;;;;5106650;27;20229;-81
2024/01/02 07:10:49;;;;;;;8.02;1.80;;;28.50;99.90;;;;;;5111039;28;20205;-80
2024/01/02 07:13:19;;;;;;;7.60;1.77;;;28.00;99.90;;;;;;5094689;27;20215;-82
2024/01/02 07:15:50;;;;;;;12.30;1.65;;;27.70;99.90;;;;;;5102470;28;20194;-81
2024/01/02 07:18:21;;;;;;;9.10;1.63;;;27.40;99.90;;;;;;5112639;28;20780;-83
2024/01/02 07:20:51;;;;;;;8.35;1.60;;;27.10;99.90;;;;;;5111210;28;20516;-79
2024/01/02 07:23:22;;;;;;;6.88;1.40;;;27.10;99.90;;;;;;5110893;28;20293;-79
2024/01/02 07:25:55;;;;;;;5.85;1.60;;;27.00;99.90;;;;;;5110729;28;20198;-80
2024/01/02 07:28:26;;;;;;;12.63;2.15;;;26.90;99.90;;;;;;5109545;28;20217;-80
2024/01/02 07:30:57;;;;;;;8.50;1.65;;;26.80;99.90;;;;;;5110439;28;20277;-80
2024/01/02 07:33:28;;;;;;;8.35;1.90;;;26.80;99.90;;;;;;5110716;28;20201;-80
2024/01/02 07:35:59;;;;;;;6.45;1.45;;;26.70;99.90;;;;;;5110673;28;20197;-80
2024/01/02 07:38:30;;;;;;;10.35;1.95;;;26.70;99.90;;;;;;5110868;28;20672;-79
2024/01/02 07:41:02;;;;;;;6.28;1.60;;;26.70;99.90;;;;;;5110718;28;20198;-80
2024/01/02 07:43:33;;;;;;;11.85;1.70;;;26.50;99.90;;;;;;5100487;28;20627;-78
2024/01/02 07:46:05;;;;;;;5.78;1.63;;;26.50;99.90;;;;;;5109846;28;20228;-79
2024/01/02 07:48:36;;;;;;;10.13;1.90;;;26.50;99.90;;;;;;5101878;28;20191;-80
2024/01/02 07:51:07;;;;;;;10.70;2.05;;;26.40;99.90;;;;;;5103614;27;20563;-80
2024/01/02 07:53:38;;;;;;;11.07;1.90;;;26.40;99.90;;;;;;5115162;28;20276;-80
2024/01/02 07:56:11;;;;;;;8.98;1.50;;;26.40;99.90;;;;;;5131329;28;20678;-80
2024/01/02 07:58:41;;;;;;;7.35;1.50;;;26.30;99.90;;;;;;5130786;28;20213;-80
2024/01/02 08:01:12;;;;;;;9.32;1.90;;;26.30;99.90;;;;;;5113824;28;20692;-80
2024/01/02 08:03:43;;;;;;;6.03;1.63;;;26.30;99.90;;;;;;5118394;28;20207;-80
2024/01/02 08:06:14;;;;;;;9.65;1.60;;;26.20;99.90;;;;;;5114179;28;20211;-79
2024/01/02 08:08:44;;;;;;;9.23;1.90;;;26.20;99.90;;;;;;5119070;28;20217;-81
2024/01/02 08:11:17;;;;;;;8.10;1.80;;;26.10;99.90;;;;;;5116985;28;20202;-82
2024/01/02 08:13:48;;;;;;;7.43;1.58;;;26.10;99.90;;;;;;5111949;28;20541;-81
2024/01/02 08:16:20;;;;;;;11.50;1.95;;;26.10;99.90;;;;;;5119262;28;20198;-82
2024/01/02 08:18:50;;;;;;;7.07;1.60;;;26.10;99.90;;;;;;5110415;28;20284;-82
2024/01/02 08:21:21;;;;;;;9.15;1.80;;;26.10;99.90;;;;;;5094389;28;20283;-83
2024/01/02 08:23:52;;;;;;;8.02;1.70;;;26.10;99.90;;;;;;5091319;28;20733;-81
2024/01/02 08:26:25;;;;;;;6.93;1.52;;;26.00;99.90;;;;;;5102878;28;20762;-82
2024/01/02 08:28:55;;;;;;;7.78;1.75;;;26.10;99.90;;;;;;5110960;28;20222;-81
2024/01/02 08:31:26;;;;;;;9.05;1.65;;;26.10;99.90;;;;;;5102243;28;20214;-82
2024/01/02 08:33:57;;;;;;;5.30;1.70;;;26.00;99.90;;;;;;5090655;28;20614;-82
2024/01/02 08:36:28;;;;;;;7.35;1.80;;;26.00;99.90;;;;;;5109012;28;20189;-82
2024/01/02 08:38:59;;;;;;;6.15;1.67;;;26.00;99.90;;;;;;5109318;28;20685;-81
2024/01/02 08:41:31;;;;;;;6.68;1.20;;;26.00;99.90;;;;;;5126791;27;20194;-78
2024/01/02 08:44:02;;;;;;;8.07;1.65;;;26.00;99.90;;;;;;5118185;27;20190;-79
2024/01/02 08:46:33;;;;;;;5.50;1.50;;;25.90;99.90;;;;;;5107841;27;20288;-78
2024/01/02 08:49:06;;;;;;;9.48;1.45;;;25.90;99.90;;;;;;5112676;27;20194;-77
2024/01/02 08:51:37;;;;;;;6.32;1.58;;;25.90;99.90;;;;;;5107755;27;20191;-79
2024/01/02 08:54:08;;;;;;;7.22;1.52;;;25.80;99.90;;;;;;5113420;28;20202;-78
2024/01/02 08:56:40;;;;;;;8.10;1.65;;;25.80;99.90;;;;;;5114099;28;20190;-79
2024/01/02 08:59:11;;;;;;;11.95;1.95;;;25.80;99.90;;;;;;5115254;28;20198;-79
2024/01/02 09:01:42;;;;;;;7.80;2.10;;;25.80;99.90;;;;;;5113837;28;20218;-79
2024/01/02 09:04:13;;;;;;;7.82;1.55;;;25.80;99.90;;;;;;5110693;28;20664;-78
2024/01/02 09:06:44;;;;;;;7.68;1.73;;;25.80;99.90;;;;;;5110442;27;20201;-78
2024/01/02 09:09:15;;;;;;;8.98;1.83;;;25.80;99.90;;;;;;5100510;28;20197;-79
2024/01/02 09:11:48;;;;;;;5.13;1.40;;;25.70;99.90;;;;;;5113709;28;20195;-79
2024/01/02 09:14:19;;;;;;;5.78;1.35;;;25.60;99.90;;;;;;5115722;27;20221;-79
2024/01/02 09:16:49;;;;;;;7.38;1.58;;;25.60;99.90;;;;;;5119396;27;20201;-79
2024/01/02 09:19:20;;;;;;;9.30;2.10;;;25.60;99.90;;;;;;5112901;28;20238;-79
2024/01/02 09:21:51;;;;;;;8.35;1.48;;;25.60;99.90;;;;;;5123715;27;20201;-78
2024/01/02 09:24:24;;;;;;;4.63;1.40;;;25.50;99.90;;;;;;5115367;27;20204;-78
2024/01/02 09:26:58;;;;;;;6.97;1.70;;;25.60;99.90;;;;;;5113006;28;20214;-78
2024/01/02 09:29:29;;;;;;;8.50;1.50;;;25.60;99.90;;;;;;5116943;27;20193;-80
2024/01/02 09:32:00;;;;;;;8.73;1.90;;;25.60;99.90;;;;;;5124790;27;20266;-80
2024/01/02 09:34:30;;;;;;;13.43;1.98;;;25.60;99.90;;;;;;5112620;28;20201;-80
2024/01/02 09:37:01;;;;;;;6.75;1.48;;;25.60;99.90;;;;;;5119920;27;20695;-80
2024/01/02 09:39:32;;;;;;;7.35;1.70;;;25.60;99.90;;;;;;5117957;27;20253;-80
2024/01/02 09:42:22;;;;;;;8.18;1.77;;;25.60;99.90;;;;;;5115366;27;20206;-80
2024/01/02 09:45:05;;;;;;;7.32;1.33;;;25.60;99.90;;;;;;5127077;27;20190;-80
2024/01/02 09:48:09;;;;;;;5.85;1.35;;;25.60;99.90;;;;;;5133269;27;20200;-80
2024/01/02 09:50:46;;;;;;;7.55;1.88;;;25.50;99.90;;;;;;5126970;27;20195;-79
2024/01/02 09:53:49;;;;;;;3.95;1.40;;;25.50;99.90;;;;;;5111618;28;20610;-80
2024/01/02 09:56:29;;;;;;;8.60;1.30;;;25.50;99.90;;;;;;5104572;28;20225;-80
2024/01/02 09:59:10;;;;;;;7.53;1.58;;;25.50;99.90;;;;;;5120575;28;20190;-80
2024/01/02 10:02:01;;;;;;;8.88;1.50;;;25.50;99.90;;;;;;5118759;27;20612;-80
2024/01/02 10:04:51;;;;;;;6.50;1.33;;;25.50;99.90;;;;;;5092334;28;20200;-81
2024/01/02 10:07:54;;;;;;;8.23;1.60;;;25.50;99.90;;;;;;5092645;28;20202;-80
2024/01/02 10:10:36;;;;;;;8.10;1.48;;;25.50;99.90;;;;;;5100624;28;20284;-81
2024/01/02 10:13:24;;;;;;;5.55;1.40;;;25.40;99.90;;;;;;5112313;28;20212;-79
2024/01/02 10:16:05;;;;;;;10.35;1.90;;;25.40;99.90;;;;;;5112617;28;20661;-80
2024/01/02 10:18:52;;;;;;;7.25;1.55;;;25.50;99.90;;;;;;5112444;28;20230;-80
2024/01/02 10:21:30;;;;;;;11.82;2.08;;;25.40;99.90;;;;;;5112366;28;20311;-80
2024/01/02 10:24:13;;;;;;;6.57;1.30;;;25.40;99.90;;;;;;5113866;28;20228;-80
2024/01/02 10:26:57;;;;;;;7.20;1.42;;;25.40;99.90;;;;;;5114910;28;20233;-79
2024/01/02 10:29:34;;;;;;;8.38;1.73;;;25.40;99.90;;;;;;5113191;28;20562;-79
2024/01/02 10:32:15;;;;;;;6.35;1.48;;;25.30;99.90;;;;;;5112389;28;20282;-81
2024/01/02 10:34:55;;;;;;;6.80;1.60;;;25.30;99.90;;;;;;5106037;28;20195;-79
2024/01/02 10:37:31;;;;;;;4.10;1.30;;;25.20;99.90;;;;;;5111919;28;20201;-79
2024/01/02 10:40:09;;;;;;;6.30;1.48;;;25.30;99.90;;;;;;5091579;28;20222;-78
2024/01/02 10:42:51;;;;;;;10.13;1.50;;;25.20;99.90;;;;;;5091492;28;20683;-78
2024/01/02 10:45:28;;;;;;;4.90;1.27;;;25.20;99.90;;;;;;5107472;28;20195;-78
2024/01/02 10:48:16;;;;;;;7.40;1.63;;;25.30;99.90;;;;;;5111362;28;20689;-79
2024/01/02 10:50:55;;;;;;;6.53;1.40;;;25.20;99.90;;;;;;5111938;28;20199;-78
2024/01/02 10:53:39;;;;;;;4.88;1.45;;;25.20;99.90;;;;;;5125877;27;20186;-78
2024/01/02 10:56:15;;;;;;;4.30;1.48;;;25.20;99.90;;;;;;5131881;27;20911;-78
2024/01/02 10:59:00;;;;;;;10.07;1.75;;;25.20;99.90;;;;;;5090162;28;20203;-78
2024/01/02 11:01:31;;;;;;;6.70;1.38;;;25.20;99.90;;;;;;5107205;27;20233;-79
2024/01/02 11:04:13;;;;;;;7.50;1.45;;;25.20;99.90;;;;;;5110824;28;20202;-79
2024/01/02 11:06:48;;;;;;;9.57;1.70;;;25.20;99.90;;;;;;5125519;27;20671;-79
2024/01/02 11:09:26;;;;;;;8.63;1.55;;;25.20;99.90;;;;;;5115736;27;20231;-80
2024/01/02 11:11:59;;;;;;;7.55;1.50;;;25.20;99.90;;;;;;5115211;27;20228;-80
2024/01/02 11:14:32;;;;;;;7.97;1.70;;;25.30;99.90;;;;;;5125569;27;20198;-80
2024/01/02 11:17:03;;;;;;;5.72;1.38;;;25.30;99.90;;;;;;5116463;27;20213;-80
2024/01/02 11:19:42;;;;;;;10.65;1.55;;;25.30;99.90;;;;;;5109825;28;20341;-80
2024/01/02 11:22:18;;;;;;;7.53;1.50;;;25.30;99.90;;;;;;5109312;28;20226;-79
2024/01/02 11:24:56;;;;;;;11.82;1.67;;;25.30;99.90;;;;;;5107817;28;20190;-78
2024/01/02 11:27:28;;;;;;;10.73;1.95;;;25.30;99.90;;;;;;5101311;28;20599;-78
2024/01/02 11:30:02;;;;;;;7.72;1.60;;;25.30;99.90;;;;;;5090131;28;20191;-78
2024/01/02 11:32:42;;;;;;;8.90;1.70;;;25.30;99.90;;;;;;5096238;27;20189;-77
2024/01/02 11:35:15;;;;;;;8.18;1.75;;;25.30;99.90;;;;;;5113784;27;20197;-78
2024/01/02 11:37:58;;;;;;;5.25;1.10;;;25.20;99.90;;;;;;5128717;27;20632;-78
2024/01/02 11:40:36;;;;;;;7.75;1.50;;;25.20;99.90;;;;;;5106374;28;20588;-77
2024/01/02 11:43:20;;;;;;;7.93;1.65;;;25.20;99.90;;;;;;5114254;28;20281;-77
2024/01/02 11:45:59;;;;;;;12.25;1.77;;;25.20;99.90;;;;;;5106675;27;20203;-77
2024/01/02 11:48:44;;;;;;;8.27;1.48;;;25.20;99.90;;;;;;5115762;28;20189;-77
2024/01/02 11:51:26;;;;;;;6.88;1.40;;;25.20;99.90;;;;;;5112516;28;20195;-77
2024/01/02 11:54:09;;;;;;;8.38;1.83;;;25.20;99.90;;;;;;5109430;28;20296;-77
2024/01/02 11:56:41;;;;;;;8.32;1.73;;;25.20;99.90;;;;;;5094238;28;20652;-78
2024/01/02 11:59:20;;;;;;;8.27;1.55;;;25.20;99.90;;;;;;5110557;28;20207;-77
2024/01/02 12:02:03;;;;;;;5.82;1.55;;;25.20;99.90;;;;;;5111891;28;20224;-78
2024/01/02 12:04:46;;;;;;;9.48;1.60;;;25.20;99.90;;;;;;5124091;28;20195;-78
2024/01/02 12:07:24;;;;;;;7.68;1.73;;;25.20;99.90;;;;;;5102576;28;20198;-78
2024/01/02 12:09:57;;;;;;;5.57;1.25;;;25.20;99.90;;;;;;5112730;28;20190;-77
2024/01/02 12:12:48;;;;;;;5.63;1.30;;;25.20;99.90;;;;;;5121477;27;20659;-76
2024/01/02 12:15:24;;;;;;;9.90;1.60;;;25.20;99.90;;;;;;5109538;28;20186;-77
2024/01/02 12:17:59;;;;;;;8.55;1.85;;;25.20;99.90;;;;;;5107014;28;20693;-76
2024/01/02 12:20:33;;;;;;;9.07;1.35;;;25.20;99.90;;;;;;5111161;27;20214;-76
2024/01/02 12:23:07;;;;;;;9.27;1.90;;;25.20;99.90;;;;;;5112653;28;20199;-77
2024/01/02 12:25:42;;;;;;;8.30;1.90;;;25.20;99.90;;;;;;5109515;28;20194;-77
2024/01/02 12:28:14;;;;;;;8.02;2.10;;;25.10;99.90;;;;;;5111941;27;20198;-77
2024/01/02 12:30:57;;;;;;;7.70;1.40;;;25.10;99.90;;;;;;5109874;28;20232;-77
2024/01/02 12:33:35;;;;;;;6.15;1.50;;;25.10;99.90;;;;;;5126557;27;20190;-76
2024/01/02 12:36:28;;;;;;;8.07;1.63;;;25.10;99.90;;;;;;5112407;28;20198;-77
2024/01/02 12:39:05;;;;;;;6.40;1.60;;;25.10;99.90;;;;;;5096273;28;20192;-78
2024/01/02 12:41:42;;;;;;;7.15;1.40;;;25.10;99.90;;;;;;5113854;27;20696;-76
2024/01/02 12:44:12;;;;;;;10.07;1.52;;;25.10;99.90;;;;;;5106547;27;20237;-78
2024/01/02 12:46:51;;;;;;;6.65;1.45;;;25.00;99.90;;;;;;5111689;28;20222;-77
2024/01/02 12:49:30;;;;;;;6.50;1.60;;;25.00;99.90;;;;;;5103348;27;20762;-78
2024/01/02 12:52:04;;;;;;;7.32;1.33;;;24.90;99.90;;;;;;5110019;28;20214;-77
2024/01/02 12:54:43;;;;;;;6.50;1.70;;;24.90;99.90;;;;;;5105434;28;20194;-78
2024/01/02 12:57:14;;;;;;;8.05;1.83;;;24.80;99.90;;;;;;5111300;28;20243;-77
2024/01/02 12:59:47;;;;;;;5.53;1.30;;;24.80;99.90;;;;;;5103982;28;20297;-78
2024/01/02 13:02:18;;;;;;;8.38;1.60;;;24.90;99.90;;;;;;5105817;28;20228;-77
2024/01/02 13:04:49;;;;;;;6.60;1.45;;;24.90;99.90;;;;;;5101534;28;20215;-78
2024/01/02 13:07:19;;;;;;;7.65;1.33;;;24.90;99.90;;;;;;5103305;28;20209;-78
2024/01/02 13:09:53;;;;;;;5.13;1.17;;;24.90;99.90;;;;;;5109941;27;20710;-77
2024/01/02 13:12:28;;;;;;;7.43;1.38;;;24.90;99.90;;;;;;5107318;28;20668;-77
2024/01/02 13:15:01;;;;;;;11.55;1.80;;;24.90;99.90;;;;;;5111493;27;20227;-77
2024/01/02 13:17:32;;;;;;;5.72;1.17;;;24.90;99.90;;;;;;5114739;27;20760;-77
2024/01/02 13:20:05;;;;;;;8.55;1.15;;;24.90;99.90;;;;;;5110506;27;20219;-76